Terminal Aerodrome Forecast
Issued by NWS

Home | Current Version | Previous Version | Text Only | Print | Product List | Glossary On
Versions: 1 2 3 4 5 6 7 8 9 10 11 12 13 14 15 16 17 18 19 20 21 22 23 24 25 26 27 28 29 30 31 32 33 34
000
FTUS45 KGJT 242024 AAA
TAFRIL
TAF AMD
KRIL 242024Z 2420/2518 30005KT P6SM VCSH SCT080 BKN120
      TEMPO 2422/2424 VRB20G30KT -TSRA SCT050 BKN080CB
     FM250100 13010KT P6SM VCTS SCT080CB BKN120
     FM250400 13003KT P6SM VCSH SCT090 BKN150
     FM250700 08003KT P6SM BKN120=

USA.gov is the U.S. government's official web portal to all federal, state and local government web resources and services.